createdAt,value
2023-03-30T00:03:56.769Z,47.69
2023-03-30T00:08:59.451Z,48.12
2023-03-30T00:14:01.441Z,48.36
2023-03-30T00:19:03.292Z,48.73
2023-03-30T00:24:05.207Z,49.14
2023-03-30T00:29:07.435Z,49.21
2023-03-30T00:34:09.707Z,49.02
2023-03-30T00:39:11.481Z,49.45
2023-03-30T00:45:11.118Z,49.71
2023-03-30T00:50:13.497Z,49.57
2023-03-30T00:55:16.732Z,49.68
2023-03-30T01:00:19.784Z,49.77
2023-03-30T01:05:24.224Z,49.94
2023-03-30T01:10:26.280Z,50.00
2023-03-30T01:15:35.436Z,50.34
2023-03-30T01:20:57.815Z,50.79
2023-03-30T01:26:44.138Z,50.48
2023-03-30T01:38:07.873Z,50.09
2023-03-30T01:43:15.652Z,49.91
2023-03-30T01:48:23.851Z,50.10
2023-03-30T01:53:46.681Z,50.01
2023-03-30T01:58:53.868Z,49.89
2023-03-30T02:03:59.128Z,49.82
2023-03-30T02:09:01.402Z,49.85
2023-03-30T02:14:05.608Z,49.74
2023-03-30T02:19:07.864Z,49.90
2023-03-30T02:24:19.370Z,50.17
2023-03-30T02:29:23.162Z,49.77
2023-03-30T02:34:43.550Z,49.77
2023-03-30T02:39:51.260Z,49.93
2023-03-30T02:45:03.085Z,50.23
2023-03-30T02:50:33.273Z,50.17
2023-03-30T02:56:00.649Z,50.02
2023-03-30T03:01:35.316Z,50.18
2023-03-30T03:06:46.214Z,50.16
2023-03-30T03:11:48.010Z,49.99
2023-03-30T03:16:49.902Z,50.17
2023-03-30T03:21:53.254Z,50.06
2023-03-30T03:26:55.663Z,50.02
2023-03-30T03:31:59.195Z,50.18
2023-03-30T03:37:06.350Z,50.16
2023-03-30T03:42:09.406Z,50.05
2023-03-30T03:47:19.732Z,50.38
2023-03-30T03:52:21.925Z,50.41
2023-03-30T03:57:24.502Z,50.70
2023-03-30T04:02:27.891Z,50.73
2023-03-30T04:07:31.060Z,51.06
2023-03-30T04:12:33.559Z,50.77
2023-03-30T04:18:08.777Z,50.75
2023-03-30T04:23:35.351Z,50.76
2023-03-30T04:29:04.996Z,51.32
2023-03-30T04:34:31.182Z,51.10
2023-03-30T04:39:54.120Z,50.91
2023-03-30T04:45:14.764Z,51.01
2023-03-30T04:50:35.041Z,52.07
2023-03-30T04:56:09.148Z,51.80
2023-03-30T05:01:17.579Z,50.47
2023-03-30T05:06:42.155Z,49.43
2023-03-30T05:11:59.476Z,48.83
2023-03-30T05:17:16.648Z,48.50
2023-03-30T05:22:33.024Z,47.74
2023-03-30T05:27:53.632Z,47.48
2023-03-30T05:33:18.254Z,46.60
2023-03-30T05:38:36.141Z,46.63
2023-03-30T05:44:07.253Z,46.62
2023-03-30T05:49:27.233Z,46.40
2023-03-30T05:54:58.669Z,46.42
2023-03-30T06:00:23.849Z,46.50
2023-03-30T06:05:43.639Z,46.17
2023-03-30T06:10:53.382Z,46.02
2023-03-30T06:15:55.482Z,46.25
2023-03-30T06:21:03.093Z,45.70
2023-03-30T06:26:07.815Z,45.04
2023-03-30T06:31:12.295Z,44.52
2023-03-30T06:36:17.640Z,43.72
2023-03-30T06:41:22.112Z,43.52
2023-03-30T06:46:26.173Z,43.32
2023-03-30T06:51:29.877Z,43.35
2023-03-30T06:56:34.142Z,43.65
2023-03-30T07:01:45.325Z,43.75
2023-03-30T07:06:59.771Z,44.33
2023-03-30T07:12:01.558Z,44.60
2023-03-30T07:17:04.156Z,44.73
2023-03-30T07:22:06.118Z,44.49
2023-03-30T07:27:07.932Z,44.35
2023-03-30T07:32:11.302Z,44.36
2023-03-30T07:37:20.288Z,44.39
2023-03-30T07:42:24.213Z,44.52
2023-03-30T07:47:27.475Z,44.54
2023-03-30T07:52:29.553Z,44.81
2023-03-30T07:57:36.085Z,44.87
2023-03-30T08:02:38.402Z,44.48
2023-03-30T08:07:43.159Z,44.63
2023-03-30T08:12:51.879Z,44.60
2023-03-30T08:17:54.011Z,44.32
2023-03-30T08:22:55.901Z,44.19
2023-03-30T08:27:57.668Z,43.87
2023-03-30T08:32:59.545Z,43.26
2023-03-30T08:38:01.356Z,43.11
2023-03-30T08:43:25.883Z,42.97
2023-03-30T08:48:31.879Z,42.68
2023-03-30T08:53:34.769Z,42.36
2023-03-30T08:58:43.279Z,42.55
2023-03-30T09:04:12.932Z,42.25
2023-03-30T09:09:30.106Z,42.62
2023-03-30T09:14:42.909Z,42.80
2023-03-30T09:19:57.336Z,42.99
2023-03-30T09:24:59.528Z,43.40
2023-03-30T09:30:14.107Z,43.71
2023-03-30T09:35:21.879Z,43.60
2023-03-30T09:40:54.302Z,44.38
2023-03-30T09:45:58.011Z,45.73
2023-03-30T09:50:59.870Z,46.46
2023-03-30T09:56:19.448Z,47.27
2023-03-30T10:01:24.294Z,47.63
2023-03-30T10:06:26.186Z,48.89
2023-03-30T10:11:49.618Z,50.05
2023-03-30T10:16:51.709Z,51.13
2023-03-30T10:21:55.799Z,52.48
2023-03-30T10:27:03.261Z,52.92
2023-03-30T10:32:16.709Z,53.37
2023-03-30T10:37:27.098Z,53.48
2023-03-30T10:42:31.913Z,52.93
2023-03-30T10:48:07.405Z,53.45
2023-03-30T10:53:12.342Z,53.22
2023-03-30T10:58:29.380Z,53.58
2023-03-30T11:03:32.858Z,53.57
2023-03-30T11:08:42.350Z,53.43
2023-03-30T11:14:04.552Z,52.95
2023-03-30T11:19:26.296Z,52.88
2023-03-30T11:24:28.898Z,52.28
2023-03-30T11:29:38.230Z,51.97
2023-03-30T11:35:01.296Z,51.64
2023-03-30T11:40:21.479Z,51.46
2023-03-30T11:45:51.065Z,50.82
2023-03-30T11:51:01.857Z,50.38
2023-03-30T11:56:31.822Z,49.94
2023-03-30T12:01:54.861Z,48.73
2023-03-30T12:07:01.816Z,48.58
2023-03-30T12:12:12.153Z,47.48
2023-03-30T12:17:26.848Z,46.63
2023-03-30T12:22:47.655Z,45.81
2023-03-30T12:28:12.864Z,45.79
2023-03-30T12:33:20.779Z,45.25
2023-03-30T12:38:25.759Z,44.58
2023-03-30T12:43:48.877Z,43.97
2023-03-30T12:49:06.245Z,43.70
2023-03-30T12:54:38.021Z,43.61
2023-03-30T13:00:01.390Z,43.49
2023-03-30T13:05:16.426Z,43.03
2023-03-30T13:10:30.720Z,42.74
2023-03-30T13:15:41.560Z,42.19
2023-03-30T13:20:46.249Z,43.07
2023-03-30T13:26:02.764Z,42.69
2023-03-30T13:31:35.477Z,42.47
2023-03-30T13:37:00.918Z,43.58
2023-03-30T13:42:27.620Z,43.33
2023-03-30T13:47:50.724Z,44.02
2023-03-30T13:52:53.968Z,43.97
2023-03-30T13:58:03.576Z,44.12
2023-03-30T14:03:27.547Z,43.96
2023-03-30T14:08:34.350Z,43.94
2023-03-30T14:13:37.677Z,43.18
2023-03-30T14:18:39.529Z,42.79
2023-03-30T14:23:45.548Z,42.58
2023-03-30T14:28:47.584Z,42.09
2023-03-30T14:33:49.662Z,41.43
2023-03-30T14:38:53.887Z,41.34
2023-03-30T14:43:55.595Z,40.54
2023-03-30T14:48:57.946Z,40.97
2023-03-30T14:54:00.335Z,41.60
2023-03-30T14:59:02.956Z,41.53
2023-03-30T15:04:14.161Z,41.62
2023-03-30T15:09:18.649Z,42.12
2023-03-30T15:14:22.747Z,42.63
2023-03-30T15:19:30.271Z,42.67
2023-03-30T15:24:36.454Z,44.33
2023-03-30T15:29:40.406Z,45.40
2023-03-30T15:35:16.449Z,46.32
2023-03-30T15:40:30.380Z,46.81
2023-03-30T15:45:36.710Z,46.45
2023-03-30T15:50:39.202Z,46.10
2023-03-30T15:55:41.507Z,45.63
2023-03-30T16:00:44.646Z,44.06
2023-03-30T16:05:46.451Z,46.73
2023-03-30T16:10:48.854Z,49.38
2023-03-30T16:15:51.687Z,51.88
2023-03-30T16:20:53.537Z,53.33
2023-03-30T16:25:55.358Z,54.42
2023-03-30T16:31:02.919Z,55.62
2023-03-30T16:36:05.579Z,55.82
2023-03-30T16:41:17.425Z,55.95
2023-03-30T16:46:20.766Z,55.47
2023-03-30T16:51:24.391Z,55.12
2023-03-30T16:56:26.471Z,54.89
2023-03-30T17:01:30.200Z,54.88
2023-03-30T17:06:32.602Z,55.02
2023-03-30T17:11:34.753Z,54.54
2023-03-30T17:16:36.977Z,54.17
2023-03-30T17:21:40.867Z,53.57
2023-03-30T17:26:43.354Z,53.33
2023-03-30T17:31:46.012Z,53.19
2023-03-30T17:36:47.958Z,52.92
2023-03-30T17:41:49.697Z,52.70
2023-03-30T17:46:51.474Z,52.38
2023-03-30T17:51:53.946Z,52.21
2023-03-30T17:56:55.764Z,52.15
2023-03-30T18:01:57.715Z,52.13
2023-03-30T18:06:59.497Z,52.58
2023-03-30T18:12:01.265Z,52.90
2023-03-30T18:17:06.810Z,52.58
2023-03-30T18:22:09.440Z,52.76
2023-03-30T18:27:11.518Z,52.94
2023-03-30T18:32:13.782Z,53.13
2023-03-30T18:37:16.025Z,53.24
2023-03-30T18:42:17.828Z,53.06
2023-03-30T18:47:19.844Z,53.24
2023-03-30T18:52:21.818Z,52.71
2023-03-30T18:57:24.352Z,52.51
2023-03-30T19:02:26.588Z,52.89
2023-03-30T19:07:29.114Z,52.70
2023-03-30T19:12:31.680Z,53.00
2023-03-30T19:17:34.312Z,52.98
2023-03-30T19:22:36.392Z,53.10
2023-03-30T19:27:40.952Z,52.93
2023-03-30T19:32:50.620Z,52.95
2023-03-30T19:37:52.645Z,53.24
2023-03-30T19:42:54.426Z,53.25
2023-03-30T19:47:56.387Z,53.12
2023-03-30T19:52:58.284Z,53.22
2023-03-30T19:58:00.451Z,53.09
2023-03-30T20:03:02.819Z,52.95
2023-03-30T20:08:13.727Z,52.90
2023-03-30T20:13:25.007Z,52.79
2023-03-30T20:18:26.791Z,52.71
2023-03-30T20:23:28.582Z,52.87
2023-03-30T20:28:31.580Z,52.84
2023-03-30T20:33:33.726Z,52.87
2023-03-30T20:38:39.634Z,52.82
2023-03-30T20:43:56.218Z,52.78
2023-03-30T20:49:02.000Z,52.83
2023-03-30T20:54:07.574Z,52.66
2023-03-30T20:59:09.902Z,52.86
2023-03-30T21:04:11.837Z,53.13
2023-03-30T21:09:13.872Z,53.13
2023-03-30T21:14:15.968Z,53.32
2023-03-30T21:19:17.742Z,53.63
2023-03-30T21:24:19.589Z,53.45
2023-03-30T21:29:22.124Z,53.35
2023-03-30T21:34:23.907Z,53.52
2023-03-30T21:39:25.782Z,53.53
2023-03-30T21:44:27.680Z,53.59
2023-03-30T21:49:29.469Z,53.44
2023-03-30T21:54:31.318Z,53.51
2023-03-30T21:59:33.139Z,53.67
2023-03-30T22:04:34.920Z,53.71
2023-03-30T22:09:36.879Z,53.80
2023-03-30T22:14:38.662Z,53.65
2023-03-30T22:19:40.603Z,53.29
2023-03-30T22:24:42.350Z,53.37
2023-03-30T22:29:44.093Z,53.24
2023-03-30T22:34:47.355Z,53.62
2023-03-30T22:39:49.303Z,53.72
2023-03-30T22:44:51.701Z,53.79
2023-03-30T22:49:53.461Z,54.00
2023-03-30T22:54:55.277Z,53.94
2023-03-30T22:59:57.008Z,53.92
2023-03-30T23:04:58.767Z,54.08
2023-03-30T23:10:03.826Z,53.86
2023-03-30T23:15:05.870Z,54.22
2023-03-30T23:20:10.569Z,54.39
2023-03-30T23:25:12.454Z,54.37
2023-03-30T23:30:14.705Z,54.26
2023-03-30T23:35:16.592Z,54.03
2023-03-30T23:40:18.385Z,54.18
2023-03-30T23:45:20.381Z,54.13
2023-03-30T23:50:22.132Z,54.23
2023-03-30T23:55:24.613Z,53.72
